sensor_id;sensor_type;location;lat;lon;timestamp;pressure;altitude;pressure_sealevel;temperature;humidity
4598;BME280;62772;48.646;8.906;2023-01-26T00:01:44;96727.91;;;-2.12;100.00
4598;BME280;62772;48.646;8.906;2023-01-26T00:06:44;96725.72;;;-1.48;100.00
4598;BME280;62772;48.646;8.906;2023-01-26T00:11:45;96721.81;;;-1.26;100.00
4598;BME280;62772;48.646;8.906;2023-01-26T00:16:45;96720.06;;;-1.33;100.00
4598;BME280;62772;48.646;8.906;2023-01-26T00:21:45;96713.16;;;-1.15;100.00
4598;BME280;62772;48.646;8.906;2023-01-26T00:26:46;96701.22;;;-0.99;100.00
4598;BME280;62772;48.646;8.906;2023-01-26T00:31:46;96684.94;;;-1.43;100.00
4598;BME280;62772;48.646;8.906;2023-01-26T00:36:48;96678.56;;;-1.48;100.00
4598;BME280;62772;48.646;8.906;2023-01-26T00:41:48;96668.44;;;-1.56;100.00
4598;BME280;62772;48.646;8.906;2023-01-26T00:47:11;96666.97;;;-1.40;100.00
4598;BME280;62772;48.646;8.906;2023-01-26T00:52:12;96661.41;;;-1.32;100.00
4598;BME280;62772;48.646;8.906;2023-01-26T00:57:12;96655.28;;;-1.25;100.00
4598;BME280;62772;48.646;8.906;2023-01-26T01:02:13;96658.13;;;-1.27;100.00
4598;BME280;62772;48.646;8.906;2023-01-26T01:07:13;96644.25;;;-0.92;100.00
4598;BME280;62772;48.646;8.906;2023-01-26T01:12:13;96646.38;;;-1.24;100.00
4598;BME280;62772;48.646;8.906;2023-01-26T01:17:14;96646.31;;;-1.48;100.00
4598;BME280;62772;48.646;8.906;2023-01-26T01:22:14;96648.22;;;-1.01;100.00
4598;BME280;62772;48.646;8.906;2023-01-26T01:27:15;96653.28;;;-1.54;100.00
4598;BME280;62772;48.646;8.906;2023-01-26T01:32:16;96647.09;;;-1.90;100.00
4598;BME280;62772;48.646;8.906;2023-01-26T01:37:16;96642.50;;;-2.06;100.00
4598;BME280;62772;48.646;8.906;2023-01-26T01:42:17;96639.13;;;-1.95;100.00
4598;BME280;62772;48.646;8.906;2023-01-26T01:47:22;96627.38;;;-2.04;100.00
4598;BME280;62772;48.646;8.906;2023-01-26T01:52:28;96630.47;;;-1.65;100.00
4598;BME280;62772;48.646;8.906;2023-01-26T01:57:35;96629.53;;;-2.01;100.00
4598;BME280;62772;48.646;8.906;2023-01-26T02:02:45;96617.44;;;-2.14;100.00
4598;BME280;62772;48.646;8.906;2023-01-26T02:08:08;96613.69;;;-1.76;100.00
4598;BME280;62772;48.646;8.906;2023-01-26T02:13:10;96608.00;;;-1.19;100.00
4598;BME280;62772;48.646;8.906;2023-01-26T02:18:11;96608.81;;;-1.06;100.00
4598;BME280;62772;48.646;8.906;2023-01-26T02:23:18;96607.19;;;-0.96;100.00
4598;BME280;62772;48.646;8.906;2023-01-26T02:28:24;96601.03;;;-1.37;100.00
4598;BME280;62772;48.646;8.906;2023-01-26T02:33:26;96603.53;;;-1.84;100.00
4598;BME280;62772;48.646;8.906;2023-01-26T02:38:54;96603.19;;;-2.18;100.00
4598;BME280;62772;48.646;8.906;2023-01-26T02:43:58;96599.00;;;-2.07;100.00
4598;BME280;62772;48.646;8.906;2023-01-26T02:48:59;96594.50;;;-1.58;100.00
4598;BME280;62772;48.646;8.906;2023-01-26T02:54:20;96594.41;;;-1.39;100.00
4598;BME280;62772;48.646;8.906;2023-01-26T02:59:39;96592.41;;;-1.79;100.00
4598;BME280;62772;48.646;8.906;2023-01-26T03:04:41;96590.97;;;-1.52;100.00
4598;BME280;62772;48.646;8.906;2023-01-26T03:09:42;96585.16;;;-2.08;100.00
4598;BME280;62772;48.646;8.906;2023-01-26T03:14:43;96576.00;;;-2.17;100.00
4598;BME280;62772;48.646;8.906;2023-01-26T03:19:43;96589.16;;;-2.05;100.00
4598;BME280;62772;48.646;8.906;2023-01-26T03:25:02;96576.31;;;-2.25;100.00
4598;BME280;62772;48.646;8.906;2023-01-26T03:30:24;96572.69;;;-2.24;100.00
4598;BME280;62772;48.646;8.906;2023-01-26T03:35:24;96566.50;;;-2.30;100.00
4598;BME280;62772;48.646;8.906;2023-01-26T03:40:26;96556.22;;;-2.43;100.00
4598;BME280;62772;48.646;8.906;2023-01-26T03:45:46;96552.00;;;-2.44;100.00
4598;BME280;62772;48.646;8.906;2023-01-26T03:51:06;96538.94;;;-2.44;100.00
4598;BME280;62772;48.646;8.906;2023-01-26T03:56:25;96539.06;;;-2.39;100.00
4598;BME280;62772;48.646;8.906;2023-01-26T04:01:30;96547.88;;;-2.52;100.00
4598;BME280;62772;48.646;8.906;2023-01-26T04:06:32;96539.03;;;-2.51;100.00
4598;BME280;62772;48.646;8.906;2023-01-26T04:11:52;96536.03;;;-2.55;100.00
4598;BME280;62772;48.646;8.906;2023-01-26T04:16:53;96535.97;;;-2.48;100.00
4598;BME280;62772;48.646;8.906;2023-01-26T04:22:12;96552.94;;;-2.39;100.00
4598;BME280;62772;48.646;8.906;2023-01-26T04:27:15;96549.63;;;-2.46;100.00
4598;BME280;62772;48.646;8.906;2023-01-26T04:32:16;96541.09;;;-2.41;100.00
4598;BME280;62772;48.646;8.906;2023-01-26T04:37:17;96540.03;;;-2.52;100.00
4598;BME280;62772;48.646;8.906;2023-01-26T04:42:21;96538.81;;;-2.49;100.00
4598;BME280;62772;48.646;8.906;2023-01-26T04:47:24;96538.28;;;-2.58;100.00
4598;BME280;62772;48.646;8.906;2023-01-26T04:52:24;96527.16;;;-2.53;100.00
4598;BME280;62772;48.646;8.906;2023-01-26T04:57:25;96516.81;;;-2.60;100.00
4598;BME280;62772;48.646;8.906;2023-01-26T05:02:27;96518.25;;;-2.64;100.00
4598;BME280;62772;48.646;8.906;2023-01-26T05:07:28;96518.84;;;-2.62;100.00
4598;BME280;62772;48.646;8.906;2023-01-26T05:12:29;96521.31;;;-2.67;100.00
4598;BME280;62772;48.646;8.906;2023-01-26T05:18:02;96527.91;;;-2.65;100.00
4598;BME280;62772;48.646;8.906;2023-01-26T05:23:26;96516.56;;;-2.40;100.00
4598;BME280;62772;48.646;8.906;2023-01-26T05:28:45;96512.50;;;-2.55;100.00
4598;BME280;62772;48.646;8.906;2023-01-26T05:33:45;96519.53;;;-2.55;100.00
4598;BME280;62772;48.646;8.906;2023-01-26T05:38:49;96525.53;;;-2.66;100.00
4598;BME280;62772;48.646;8.906;2023-01-26T05:43:54;96529.88;;;-2.60;100.00
4598;BME280;62772;48.646;8.906;2023-01-26T05:49:09;96525.88;;;-2.63;100.00
4598;BME280;62772;48.646;8.906;2023-01-26T05:54:09;96530.75;;;-2.66;100.00
4598;BME280;62772;48.646;8.906;2023-01-26T05:59:10;96533.28;;;-2.29;100.00
4598;BME280;62772;48.646;8.906;2023-01-26T06:04:10;96525.34;;;-2.53;100.00
4598;BME280;62772;48.646;8.906;2023-01-26T06:09:18;96528.44;;;-2.56;100.00
4598;BME280;62772;48.646;8.906;2023-01-26T06:14:34;96533.13;;;-2.46;100.00
4598;BME280;62772;48.646;8.906;2023-01-26T06:19:35;96531.41;;;-2.22;100.00
4598;BME280;62772;48.646;8.906;2023-01-26T06:24:37;96528.72;;;-2.34;100.00
4598;BME280;62772;48.646;8.906;2023-01-26T06:29:37;96536.25;;;-1.95;100.00
4598;BME280;62772;48.646;8.906;2023-01-26T06:34:38;96535.38;;;-1.77;100.00
4598;BME280;62772;48.646;8.906;2023-01-26T06:39:39;96536.03;;;-1.82;100.00
4598;BME280;62772;48.646;8.906;2023-01-26T06:44:41;96538.66;;;-1.94;100.00
4598;BME280;62772;48.646;8.906;2023-01-26T06:49:41;96531.91;;;-2.02;100.00
4598;BME280;62772;48.646;8.906;2023-01-26T06:54:47;96535.59;;;-2.51;100.00
4598;BME280;62772;48.646;8.906;2023-01-26T06:59:55;96538.94;;;-2.44;100.00
4598;BME280;62772;48.646;8.906;2023-01-26T07:05:05;96532.16;;;-2.33;100.00
4598;BME280;62772;48.646;8.906;2023-01-26T07:10:06;96542.84;;;-2.35;100.00
4598;BME280;62772;48.646;8.906;2023-01-26T07:15:07;96534.47;;;-2.74;100.00
4598;BME280;62772;48.646;8.906;2023-01-26T07:20:08;96541.97;;;-2.29;100.00
4598;BME280;62772;48.646;8.906;2023-01-26T07:25:09;96551.47;;;-2.34;100.00
4598;BME280;62772;48.646;8.906;2023-01-26T07:30:10;96547.53;;;-2.74;100.00
4598;BME280;62772;48.646;8.906;2023-01-26T07:35:13;96544.13;;;-2.75;100.00
4598;BME280;62772;48.646;8.906;2023-01-26T07:40:13;96551.34;;;-2.40;100.00
4598;BME280;62772;48.646;8.906;2023-01-26T07:45:14;96554.59;;;-2.26;100.00
4598;BME280;62772;48.646;8.906;2023-01-26T07:50:17;96548.19;;;-2.30;100.00
4598;BME280;62772;48.646;8.906;2023-01-26T07:55:18;96545.84;;;-2.20;100.00
4598;BME280;62772;48.646;8.906;2023-01-26T08:00:19;96546.09;;;-2.21;100.00
4598;BME280;62772;48.646;8.906;2023-01-26T08:05:20;96548.31;;;-2.25;100.00
4598;BME280;62772;48.646;8.906;2023-01-26T08:10:20;96551.69;;;-2.06;100.00
4598;BME280;62772;48.646;8.906;2023-01-26T08:15:21;96547.25;;;-2.35;100.00
4598;BME280;62772;48.646;8.906;2023-01-26T08:20:22;96543.09;;;-2.25;100.00
4598;BME280;62772;48.646;8.906;2023-01-26T08:25:22;96557.00;;;-2.24;100.00
4598;BME280;62772;48.646;8.906;2023-01-26T08:30:23;96559.59;;;-2.24;100.00
4598;BME280;62772;48.646;8.906;2023-01-26T08:35:23;96559.91;;;-2.32;100.00
4598;BME280;62772;48.646;8.906;2023-01-26T08:40:24;96548.91;;;-2.71;100.00
4598;BME280;62772;48.646;8.906;2023-01-26T08:45:25;96559.31;;;-2.34;100.00
4598;BME280;62772;48.646;8.906;2023-01-26T08:50:25;96547.63;;;-2.32;100.00
4598;BME280;62772;48.646;8.906;2023-01-26T08:55:26;96540.41;;;-2.67;100.00
4598;BME280;62772;48.646;8.906;2023-01-26T09:00:28;96539.59;;;-2.67;100.00
4598;BME280;62772;48.646;8.906;2023-01-26T09:05:33;96548.06;;;-2.35;100.00
4598;BME280;62772;48.646;8.906;2023-01-26T09:10:36;96543.31;;;-2.57;100.00
4598;BME280;62772;48.646;8.906;2023-01-26T09:15:37;96538.63;;;-2.55;100.00
4598;BME280;62772;48.646;8.906;2023-01-26T09:20:38;96544.19;;;-3.00;100.00
4598;BME280;62772;48.646;8.906;2023-01-26T09:25:39;96546.09;;;-2.88;100.00
4598;BME280;62772;48.646;8.906;2023-01-26T09:30:39;96543.03;;;-2.85;100.00
4598;BME280;62772;48.646;8.906;2023-01-26T09:35:40;96543.03;;;-2.85;100.00
4598;BME280;62772;48.646;8.906;2023-01-26T09:40:49;96553.19;;;-2.77;100.00
4598;BME280;62772;48.646;8.906;2023-01-26T09:46:45;96550.56;;;-2.77;100.00
4598;BME280;62772;48.646;8.906;2023-01-26T09:51:32;96552.03;;;-3.00;100.00
4598;BME280;62772;48.646;8.906;2023-01-26T09:56:34;96553.72;;;-2.68;100.00
4598;BME280;62772;48.646;8.906;2023-01-26T10:01:51;96550.56;;;-2.40;100.00
4598;BME280;62772;48.646;8.906;2023-01-26T10:06:55;96552.47;;;-2.35;100.00
4598;BME280;62772;48.646;8.906;2023-01-26T10:17:26;96550.50;;;-2.70;100.00
4598;BME280;62772;48.646;8.906;2023-01-26T10:23:24;96544.91;;;-2.74;100.00
4598;BME280;62772;48.646;8.906;2023-01-26T10:27:58;96543.16;;;-2.62;100.00
4598;BME280;62772;48.646;8.906;2023-01-26T10:32:59;96540.53;;;-2.43;100.00
4598;BME280;62772;48.646;8.906;2023-01-26T10:37:59;96541.41;;;-2.49;100.00
4598;BME280;62772;48.646;8.906;2023-01-26T10:43:00;96542.94;;;-2.60;100.00
4598;BME280;62772;48.646;8.906;2023-01-26T10:48:20;96550.94;;;-3.11;100.00
4598;BME280;62772;48.646;8.906;2023-01-26T10:53:24;96552.91;;;-2.69;100.00
4598;BME280;62772;48.646;8.906;2023-01-26T10:58:47;96542.38;;;-2.62;100.00
4598;BME280;62772;48.646;8.906;2023-01-26T11:04:08;96537.59;;;-2.65;100.00
4598;BME280;62772;48.646;8.906;2023-01-26T11:14:17;96536.53;;;-2.46;100.00
4598;BME280;62772;48.646;8.906;2023-01-26T11:19:40;96523.00;;;-2.73;100.00
4598;BME280;62772;48.646;8.906;2023-01-26T11:25:16;96521.84;;;-3.14;100.00
4598;BME280;62772;48.646;8.906;2023-01-26T11:30:34;96514.00;;;-2.96;100.00
4598;BME280;62772;48.646;8.906;2023-01-26T11:41:02;96506.09;;;-2.40;100.00
4598;BME280;62772;48.646;8.906;2023-01-26T11:51:19;96502.19;;;-2.49;100.00
4598;BME280;62772;48.646;8.906;2023-01-26T11:56:31;96497.75;;;-2.49;100.00
4598;BME280;62772;48.646;8.906;2023-01-26T12:02:12;96484.66;;;-2.49;100.00
4598;BME280;62772;48.646;8.906;2023-01-26T12:07:22;96481.88;;;-2.66;100.00
4598;BME280;62772;48.646;8.906;2023-01-26T12:12:48;96487.41;;;-2.74;100.00
4598;BME280;62772;48.646;8.906;2023-01-26T12:23:43;96468.31;;;-2.75;100.00
4598;BME280;62772;48.646;8.906;2023-01-26T12:34:14;96465.47;;;-3.03;100.00
4598;BME280;62772;48.646;8.906;2023-01-26T12:44:58;96452.56;;;-2.86;100.00
4598;BME280;62772;48.646;8.906;2023-01-26T12:50:20;96451.22;;;-2.59;100.00
4598;BME280;62772;48.646;8.906;2023-01-26T12:55:38;96447.59;;;-2.58;100.00
4598;BME280;62772;48.646;8.906;2023-01-26T13:00:50;96430.41;;;-2.53;100.00
4598;BME280;62772;48.646;8.906;2023-01-26T13:05:56;96436.28;;;-2.28;100.00
4598;BME280;62772;48.646;8.906;2023-01-26T13:10:58;96442.84;;;-2.98;100.00
4598;BME280;62772;48.646;8.906;2023-01-26T13:31:33;96433.81;;;-2.83;100.00
4598;BME280;62772;48.646;8.906;2023-01-26T13:36:35;96438.50;;;-3.04;100.00
4598;BME280;62772;48.646;8.906;2023-01-26T13:41:45;96445.78;;;-2.76;100.00
4598;BME280;62772;48.646;8.906;2023-01-26T13:47:08;96440.53;;;-2.57;100.00
4598;BME280;62772;48.646;8.906;2023-01-26T13:52:21;96436.44;;;-2.83;100.00
4598;BME280;62772;48.646;8.906;2023-01-26T13:57:28;96445.56;;;-3.04;100.00
4598;BME280;62772;48.646;8.906;2023-01-26T14:02:32;96449.06;;;-2.80;100.00
4598;BME280;62772;48.646;8.906;2023-01-26T14:07:41;96432.78;;;-2.64;100.00
4598;BME280;62772;48.646;8.906;2023-01-26T14:12:45;96430.41;;;-3.14;100.00
4598;BME280;62772;48.646;8.906;2023-01-26T14:17:49;96439.47;;;-3.17;100.00
4598;BME280;62772;48.646;8.906;2023-01-26T14:23:17;96440.47;;;-2.99;100.00
4598;BME280;62772;48.646;8.906;2023-01-26T14:28:21;96436.44;;;-3.32;100.00
4598;BME280;62772;48.646;8.906;2023-01-26T14:33:22;96449.25;;;-3.12;100.00
4598;BME280;62772;48.646;8.906;2023-01-26T14:38:28;96448.78;;;-2.72;100.00
4598;BME280;62772;48.646;8.906;2023-01-26T14:43:28;96455.38;;;-2.69;100.00
4598;BME280;62772;48.646;8.906;2023-01-26T14:53:47;96463.03;;;-2.86;100.00
4598;BME280;62772;48.646;8.906;2023-01-26T14:58:50;96468.56;;;-2.95;100.00
4598;BME280;62772;48.646;8.906;2023-01-26T15:04:01;96461.09;;;-3.28;100.00
4598;BME280;62772;48.646;8.906;2023-01-26T15:09:13;96470.97;;;-2.63;100.00
4598;BME280;62772;48.646;8.906;2023-01-26T15:19:45;96472.56;;;-3.11;100.00
4598;BME280;62772;48.646;8.906;2023-01-26T15:24:46;96461.56;;;-2.82;100.00
4598;BME280;62772;48.646;8.906;2023-01-26T15:29:47;96467.41;;;-3.36;100.00
4598;BME280;62772;48.646;8.906;2023-01-26T15:34:47;96465.16;;;-3.14;100.00
4598;BME280;62772;48.646;8.906;2023-01-26T15:39:48;96466.84;;;-3.19;100.00
4598;BME280;62772;48.646;8.906;2023-01-26T15:44:48;96478.03;;;-2.82;100.00
4598;BME280;62772;48.646;8.906;2023-01-26T15:49:49;96467.34;;;-3.11;100.00
4598;BME280;62772;48.646;8.906;2023-01-26T15:54:50;96476.13;;;-3.05;100.00
4598;BME280;62772;48.646;8.906;2023-01-26T15:59:51;96480.19;;;-2.90;100.00
4598;BME280;62772;48.646;8.906;2023-01-26T16:04:51;96473.00;;;-3.14;100.00
4598;BME280;62772;48.646;8.906;2023-01-26T16:09:51;96478.59;;;-3.29;100.00
4598;BME280;62772;48.646;8.906;2023-01-26T16:14:52;96475.72;;;-2.90;100.00
4598;BME280;62772;48.646;8.906;2023-01-26T16:19:53;96478.72;;;-3.23;100.00
4598;BME280;62772;48.646;8.906;2023-01-26T16:24:53;96481.41;;;-3.30;100.00
4598;BME280;62772;48.646;8.906;2023-01-26T16:29:54;96482.50;;;-3.19;100.00
4598;BME280;62772;48.646;8.906;2023-01-26T16:34:54;96481.41;;;-3.30;100.00
4598;BME280;62772;48.646;8.906;2023-01-26T16:39:55;96482.63;;;-3.33;100.00
4598;BME280;62772;48.646;8.906;2023-01-26T16:45:32;96483.75;;;-3.03;100.00
4598;BME280;62772;48.646;8.906;2023-01-26T16:50:33;96489.03;;;-2.92;100.00
4598;BME280;62772;48.646;8.906;2023-01-26T16:55:34;96477.25;;;-3.01;100.00
4598;BME280;62772;48.646;8.906;2023-01-26T17:00:34;96476.13;;;-3.05;100.00
4598;BME280;62772;48.646;8.906;2023-01-26T17:05:35;96487.13;;;-3.21;100.00
4598;BME280;62772;48.646;8.906;2023-01-26T17:10:36;96483.78;;;-2.92;100.00
4598;BME280;62772;48.646;8.906;2023-01-26T17:15:36;96482.94;;;-3.41;100.00
4598;BME280;62772;48.646;8.906;2023-01-26T17:20:37;96480.03;;;-3.33;100.00
4598;BME280;62772;48.646;8.906;2023-01-26T17:25:38;96479.66;;;-3.36;100.00
4598;BME280;62772;48.646;8.906;2023-01-26T17:30:38;96493.25;;;-3.09;100.00
4598;BME280;62772;48.646;8.906;2023-01-26T17:35:39;96488.84;;;-3.08;100.00
4598;BME280;62772;48.646;8.906;2023-01-26T17:40:40;96489.91;;;-2.98;100.00
4598;BME280;62772;48.646;8.906;2023-01-26T17:45:41;96487.00;;;-2.89;100.00
4598;BME280;62772;48.646;8.906;2023-01-26T17:50:59;96483.66;;;-2.97;100.00
4598;BME280;62772;48.646;8.906;2023-01-26T17:56:20;96482.38;;;-3.24;100.00
4598;BME280;62772;48.646;8.906;2023-01-26T18:01:41;96490.44;;;-3.26;100.00
4598;BME280;62772;48.646;8.906;2023-01-26T18:07:02;96488.59;;;-3.44;100.00
4598;BME280;62772;48.646;8.906;2023-01-26T18:12:22;96488.50;;;-3.37;100.00
4598;BME280;62772;48.646;8.906;2023-01-26T18:17:43;96482.94;;;-3.41;100.00
4598;BME280;62772;48.646;8.906;2023-01-26T18:23:04;96485.16;;;-3.63;100.00
4598;BME280;62772;48.646;8.906;2023-01-26T18:28:25;96492.63;;;-3.67;100.00
4598;BME280;62772;48.646;8.906;2023-01-26T18:33:45;96491.06;;;-3.31;100.00
4598;BME280;62772;48.646;8.906;2023-01-26T18:39:10;96489.84;;;-3.47;100.00
4598;BME280;62772;48.646;8.906;2023-01-26T18:44:31;96490.03;;;-3.48;100.00
4598;BME280;62772;48.646;8.906;2023-01-26T18:49:51;96498.91;;;-3.31;100.00
4598;BME280;62772;48.646;8.906;2023-01-26T18:55:12;96501.63;;;-3.62;100.00
4598;BME280;62772;48.646;8.906;2023-01-26T19:00:33;96493.97;;;-3.20;100.00
4598;BME280;62772;48.646;8.906;2023-01-26T19:05:54;96497.69;;;-3.53;100.00
4598;BME280;62772;48.646;8.906;2023-01-26T19:11:15;96494.22;;;-3.66;100.00
4598;BME280;62772;48.646;8.906;2023-01-26T19:16:36;96492.13;;;-3.57;100.00
4598;BME280;62772;48.646;8.906;2023-01-26T19:21:57;96502.31;;;-3.74;100.00
4598;BME280;62772;48.646;8.906;2023-01-26T19:27:17;96491.75;;;-3.60;100.00
4598;BME280;62772;48.646;8.906;2023-01-26T19:32:38;96489.59;;;-3.89;100.00
4598;BME280;62772;48.646;8.906;2023-01-26T19:38:19;96493.84;;;-3.69;100.00
4598;BME280;62772;48.646;8.906;2023-01-26T19:43:41;96486.56;;;-3.86;100.00
4598;BME280;62772;48.646;8.906;2023-01-26T19:49:02;96484.16;;;-3.87;100.00
4598;BME280;62772;48.646;8.906;2023-01-26T19:54:24;96481.03;;;-3.96;100.00
4598;BME280;62772;48.646;8.906;2023-01-26T19:59:45;96491.81;;;-4.17;100.00
4598;BME280;62772;48.646;8.906;2023-01-26T20:05:06;96484.53;;;-4.09;100.00
4598;BME280;62772;48.646;8.906;2023-01-26T20:10:26;96485.00;;;-3.93;100.00
4598;BME280;62772;48.646;8.906;2023-01-26T20:15:47;96481.03;;;-3.96;100.00
4598;BME280;62772;48.646;8.906;2023-01-26T20:21:08;96471.75;;;-3.92;100.00
4598;BME280;62772;48.646;8.906;2023-01-26T20:26:28;96478.66;;;-4.04;100.00
4598;BME280;62772;48.646;8.906;2023-01-26T20:31:51;96478.56;;;-4.16;100.00
4598;BME280;62772;48.646;8.906;2023-01-26T20:37:11;96478.44;;;-4.03;100.00
4598;BME280;62772;48.646;8.906;2023-01-26T20:42:32;96475.81;;;-3.96;100.00
4598;BME280;62772;48.646;8.906;2023-01-26T20:47:53;96474.84;;;-3.76;100.00
4598;BME280;62772;48.646;8.906;2023-01-26T20:53:14;96488.41;;;-3.68;100.00
4598;BME280;62772;48.646;8.906;2023-01-26T20:58:35;96481.97;;;-3.90;100.00
4598;BME280;62772;48.646;8.906;2023-01-26T21:03:56;96480.16;;;-3.90;100.00
4598;BME280;62772;48.646;8.906;2023-01-26T21:09:16;96477.13;;;-3.87;100.00
4598;BME280;62772;48.646;8.906;2023-01-26T21:14:38;96477.22;;;-3.75;100.00
4598;BME280;62772;48.646;8.906;2023-01-26T21:19:58;96475.25;;;-3.54;100.00
4598;BME280;62772;48.646;8.906;2023-01-26T21:25:19;96471.22;;;-3.57;100.00
4598;BME280;62772;48.646;8.906;2023-01-26T21:30:40;96476.88;;;-3.78;100.00
4598;BME280;62772;48.646;8.906;2023-01-26T21:36:02;96469.56;;;-3.95;100.00
4598;BME280;62772;48.646;8.906;2023-01-26T21:41:12;96472.28;;;-3.83;100.00
4598;BME280;62772;48.646;8.906;2023-01-26T21:46:33;96455.06;;;-3.66;100.00
4598;BME280;62772;48.646;8.906;2023-01-26T21:51:34;96454.63;;;-3.44;100.00
4598;BME280;62772;48.646;8.906;2023-01-26T21:56:53;96461.44;;;-4.05;100.00
4598;BME280;62772;48.646;8.906;2023-01-26T22:01:56;96457.06;;;-4.11;100.00
4598;BME280;62772;48.646;8.906;2023-01-26T22:06:57;96459.31;;;-4.22;100.00
4598;BME280;62772;48.646;8.906;2023-01-26T22:11:57;96461.66;;;-3.88;100.00
4598;BME280;62772;48.646;8.906;2023-01-26T22:16:58;96462.81;;;-3.59;100.00
4598;BME280;62772;48.646;8.906;2023-01-26T22:21:58;96457.69;;;-3.66;100.00
4598;BME280;62772;48.646;8.906;2023-01-26T22:26:59;96463.25;;;-3.62;100.00
4598;BME280;62772;48.646;8.906;2023-01-26T22:32:00;96464.47;;;-3.65;100.00
4598;BME280;62772;48.646;8.906;2023-01-26T22:37:01;96450.00;;;-3.60;100.00
4598;BME280;62772;48.646;8.906;2023-01-26T22:42:02;96452.06;;;-3.88;100.00
4598;BME280;62772;48.646;8.906;2023-01-26T22:47:02;96446.06;;;-3.70;100.00
4598;BME280;62772;48.646;8.906;2023-01-26T22:52:03;96440.69;;;-3.56;100.00
4598;BME280;62772;48.646;8.906;2023-01-26T22:57:05;96447.75;;;-3.57;100.00
4598;BME280;62772;48.646;8.906;2023-01-26T23:02:06;96436.94;;;-4.29;100.00
4598;BME280;62772;48.646;8.906;2023-01-26T23:07:06;96437.53;;;-3.84;100.00
4598;BME280;62772;48.646;8.906;2023-01-26T23:12:07;96434.72;;;-4.01;100.00
4598;BME280;62772;48.646;8.906;2023-01-26T23:17:07;96432.44;;;-3.53;100.00
4598;BME280;62772;48.646;8.906;2023-01-26T23:22:08;96432.81;;;-3.93;100.00
4598;BME280;62772;48.646;8.906;2023-01-26T23:27:08;96428.00;;;-4.15;100.00
4598;BME280;62772;48.646;8.906;2023-01-26T23:32:09;96425.06;;;-4.25;100.00
4598;BME280;62772;48.646;8.906;2023-01-26T23:37:09;96416.53;;;-3.89;100.00
4598;BME280;62772;48.646;8.906;2023-01-26T23:42:10;96417.66;;;-4.03;100.00
4598;BME280;62772;48.646;8.906;2023-01-26T23:47:10;96413.84;;;-3.82;100.00
4598;BME280;62772;48.646;8.906;2023-01-26T23:52:10;96415.69;;;-3.64;100.00
4598;BME280;62772;48.646;8.906;2023-01-26T23:57:11;96403.97;;;-3.98;100.00
